createdAt,value
2019-04-22T00:00:47.367Z,1016.02
2019-04-22T00:01:45.559Z,1016.04
2019-04-22T00:02:51.656Z,1016.03
2019-04-22T00:03:52.471Z,1016.01
2019-04-22T00:04:55.074Z,1016.03
2019-04-22T00:06:05.499Z,1016.01
2019-04-22T00:07:11.702Z,1016.02
2019-04-22T00:08:13.148Z,1016.02
2019-04-22T00:09:12.514Z,1016.03
2019-04-22T00:10:14.517Z,1016.02
2019-04-22T00:11:14.701Z,1015.96
2019-04-22T00:12:16.624Z,1016.03
2019-04-22T00:13:06.464Z,1016.00
2019-04-22T00:14:10.574Z,1016.00
2019-04-22T00:15:03.759Z,1015.98
2019-04-22T00:16:10.865Z,1015.98
2019-04-22T00:17:19.941Z,1015.97
2019-04-22T00:18:16.451Z,1015.95
2019-04-22T00:20:08.606Z,1015.94
2019-04-22T00:21:16.332Z,1015.91
2019-04-22T00:22:15.320Z,1015.91
2019-04-22T00:23:12.831Z,1015.95
2019-04-22T00:24:10.701Z,1015.93
2019-04-22T00:25:14.554Z,1015.96
2019-04-22T00:26:08.764Z,1015.91
2019-04-22T00:27:13.738Z,1015.88
2019-04-22T00:28:15.742Z,1015.87
2019-04-22T00:29:36.044Z,1015.89
2019-04-22T00:30:22.056Z,1015.88
2019-04-22T00:31:11.532Z,1015.85
2019-04-22T00:32:07.568Z,1015.84
2019-04-22T00:33:07.810Z,1015.85
2019-04-22T00:34:03.452Z,1015.82
2019-04-22T00:35:07.240Z,1015.77
2019-04-22T00:36:08.844Z,1015.82
2019-04-22T00:37:08.231Z,1015.82
2019-04-22T00:38:14.303Z,1015.83
2019-04-22T00:39:16.721Z,1015.83
2019-04-22T00:40:14.780Z,1015.81
2019-04-22T00:41:16.667Z,1015.81
2019-04-22T00:42:09.971Z,1015.81
2019-04-22T00:43:13.572Z,1015.80
2019-04-22T00:44:12.585Z,1015.80
2019-04-22T00:45:11.673Z,1015.81
2019-04-22T00:46:11.439Z,1015.80
2019-04-22T00:47:21.824Z,1015.80
2019-04-22T00:48:16.238Z,1015.82
2019-04-22T00:49:53.608Z,1015.81
2019-04-22T00:50:25.376Z,1015.83
2019-04-22T00:51:15.163Z,1015.83
2019-04-22T00:52:10.846Z,1015.83
2019-04-22T00:53:08.618Z,1015.81
2019-04-22T00:54:10.303Z,1015.80
2019-04-22T00:55:12.337Z,1015.80
2019-04-22T00:57:08.969Z,1015.83
2019-04-22T00:58:12.288Z,1015.79
2019-04-22T00:59:11.481Z,1015.77
2019-04-22T01:00:13.010Z,1015.80
2019-04-22T01:02:13.349Z,1015.80
2019-04-22T01:03:16.039Z,1015.82
2019-04-22T01:04:14.998Z,1015.84
2019-04-22T01:05:15.098Z,1015.79
2019-04-22T01:06:09.766Z,1015.75
2019-04-22T01:07:13.059Z,1015.79
2019-04-22T01:08:15.072Z,1015.72
2019-04-22T01:09:10.719Z,1015.75
2019-04-22T01:10:12.948Z,1015.74
2019-04-22T01:11:13.180Z,1015.73
2019-04-22T01:12:15.526Z,1015.68
2019-04-22T01:13:11.360Z,1015.70
2019-04-22T01:14:06.668Z,1015.68
2019-04-22T01:15:09.246Z,1015.69
2019-04-22T01:16:11.238Z,1015.65
2019-04-22T01:17:06.473Z,1015.69
2019-04-22T01:18:02.449Z,1015.69
2019-04-22T01:19:06.570Z,1015.69
2019-04-22T01:20:25.744Z,1015.71
2019-04-22T01:21:19.117Z,1015.66
2019-04-22T01:22:12.869Z,1015.64
2019-04-22T01:23:03.850Z,1015.67
2019-04-22T01:24:02.887Z,1015.61
2019-04-22T01:25:01.950Z,1015.64
2019-04-22T01:26:00.779Z,1015.60
2019-04-22T01:27:01.954Z,1015.58
2019-04-22T01:27:57.160Z,1015.60
2019-04-22T01:28:59.614Z,1015.54
2019-04-22T01:29:55.519Z,1015.55
2019-04-22T01:30:53.374Z,1015.52
2019-04-22T01:31:46.009Z,1015.53
2019-04-22T01:32:47.270Z,1015.48
2019-04-22T01:33:57.228Z,1015.57
2019-04-22T01:35:00.620Z,1015.50
2019-04-22T01:36:03.999Z,1015.53
2019-04-22T01:37:02.895Z,1015.52
2019-04-22T01:38:00.016Z,1015.47
2019-04-22T01:39:13.485Z,1015.53
2019-04-22T01:40:14.736Z,1015.55
2019-04-22T01:41:17.697Z,1015.54
2019-04-22T01:43:18.555Z,1015.47
2019-04-22T01:44:31.434Z,1015.46
2019-04-22T01:45:14.347Z,1015.45
2019-04-22T01:46:10.559Z,1015.41
2019-04-22T01:47:12.786Z,1015.47
2019-04-22T01:48:12.932Z,1015.43
2019-04-22T01:49:13.058Z,1015.40
2019-04-22T01:50:17.190Z,1015.44
2019-04-22T01:51:10.890Z,1015.42
2019-04-22T01:52:11.545Z,1015.41
2019-04-22T01:53:11.796Z,1015.43
2019-04-22T01:54:12.300Z,1015.42
2019-04-22T01:55:17.505Z,1015.45
2019-04-22T01:56:16.308Z,1015.42
2019-04-22T01:57:04.950Z,1015.44
2019-04-22T01:58:09.450Z,1015.43
2019-04-22T01:58:58.942Z,1015.42
2019-04-22T02:00:02.258Z,1015.45
2019-04-22T02:01:04.533Z,1015.44
2019-04-22T02:02:09.245Z,1015.44
2019-04-22T02:03:12.807Z,1015.42
2019-04-22T02:04:08.918Z,1015.41
2019-04-22T02:05:15.677Z,1015.38
2019-04-22T02:06:17.232Z,1015.38
2019-04-22T02:07:14.323Z,1015.36
2019-04-22T02:08:15.323Z,1015.37
2019-04-22T02:09:17.669Z,1015.34
2019-04-22T02:10:11.197Z,1015.34
2019-04-22T02:11:23.748Z,1015.33
2019-04-22T02:12:14.402Z,1015.33
2019-04-22T02:13:11.485Z,1015.27
2019-04-22T02:14:13.292Z,1015.30
2019-04-22T02:15:12.296Z,1015.29
2019-04-22T02:16:27.357Z,1015.26
2019-04-22T02:17:09.283Z,1015.26
2019-04-22T02:18:17.843Z,1015.31
2019-04-22T02:19:18.778Z,1015.31
2019-04-22T02:20:12.059Z,1015.33
2019-04-22T02:21:07.561Z,1015.31
2019-04-22T02:22:07.316Z,1015.33
2019-04-22T02:23:30.286Z,1015.34
2019-04-22T02:24:12.067Z,1015.33
2019-04-22T02:25:15.870Z,1015.40
2019-04-22T02:26:15.560Z,1015.33
2019-04-22T02:28:20.015Z,1015.33
2019-04-22T02:29:09.260Z,1015.35
2019-04-22T02:30:05.438Z,1015.29
2019-04-22T02:32:19.397Z,1015.33
2019-04-22T02:32:19.468Z,1015.32
2019-04-22T02:33:55.591Z,1015.29
2019-04-22T02:35:23.976Z,1015.27
2019-04-22T02:37:18.613Z,1015.24
2019-04-22T02:38:19.676Z,1015.26
2019-04-22T02:39:12.169Z,1015.28
2019-04-22T02:40:30.665Z,1015.29
2019-04-22T02:42:13.659Z,1015.33
2019-04-22T02:43:23.523Z,1015.33
2019-04-22T02:44:13.318Z,1015.33
2019-04-22T02:45:07.188Z,1015.38
2019-04-22T02:46:34.870Z,1015.36
2019-04-22T02:47:15.640Z,1015.35
2019-04-22T02:48:31.863Z,1015.31
2019-04-22T02:49:22.094Z,1015.30
2019-04-22T02:50:08.658Z,1015.25
2019-04-22T02:51:17.109Z,1015.27
2019-04-22T02:52:20.484Z,1015.27
2019-04-22T02:53:29.764Z,1015.22
2019-04-22T02:56:27.262Z,1015.22
2019-04-22T02:57:27.986Z,1015.22
2019-04-22T02:58:16.495Z,1015.20
2019-04-22T03:01:22.971Z,1015.17
2019-04-22T03:02:16.195Z,1015.17
2019-04-22T03:03:27.593Z,1015.20
2019-04-22T03:05:23.386Z,1015.20
2019-04-22T03:06:24.701Z,1015.18
2019-04-22T03:07:09.105Z,1015.18
2019-04-22T03:08:29.963Z,1015.19
2019-04-22T03:09:19.011Z,1015.19
2019-04-22T03:10:43.892Z,1015.20
2019-04-22T03:12:16.395Z,1015.15
2019-04-22T03:13:23.382Z,1015.15
2019-04-22T03:15:17.242Z,1015.17
2019-04-22T03:17:18.672Z,1015.19
2019-04-22T03:18:20.058Z,1015.24
2019-04-22T03:21:10.648Z,1015.22
2019-04-22T03:24:23.587Z,1015.21
2019-04-22T03:25:43.437Z,1015.20
2019-04-22T03:26:18.826Z,1015.18
2019-04-22T03:28:18.735Z,1015.17
2019-04-22T03:29:32.980Z,1015.19
2019-04-22T03:31:32.116Z,1015.15
2019-04-22T03:32:40.534Z,1015.18
2019-04-22T03:36:48.417Z,1015.20
2019-04-22T03:37:32.236Z,1015.19
2019-04-22T03:38:15.175Z,1015.18
2019-04-22T03:39:29.669Z,1015.17
2019-04-22T03:42:21.609Z,1015.13
2019-04-22T03:43:35.924Z,1015.11
2019-04-22T03:44:27.000Z,1015.11
2019-04-22T03:45:26.382Z,1015.14
2019-04-22T03:46:12.357Z,1015.10
2019-04-22T03:47:21.706Z,1015.10
2019-04-22T03:48:09.624Z,1015.08
2019-04-22T03:49:29.108Z,1015.11
2019-04-22T03:50:22.037Z,1015.07
2019-04-22T03:51:25.319Z,1015.08
2019-04-22T03:52:25.063Z,1015.04
2019-04-22T03:53:15.422Z,1015.06
2019-04-22T03:54:29.738Z,1015.05
2019-04-22T03:56:49.607Z,1015.04
2019-04-22T03:58:11.062Z,1015.00
2019-04-22T03:59:35.343Z,1015.01
2019-04-22T04:00:22.338Z,1014.99
2019-04-22T04:01:18.432Z,1014.94
2019-04-22T04:02:21.466Z,1014.94
2019-04-22T04:05:28.318Z,1014.89
2019-04-22T04:09:19.497Z,1014.88
2019-04-22T04:10:32.247Z,1014.94
2019-04-22T04:11:11.781Z,1014.96
2019-04-22T04:12:18.247Z,1014.93
2019-04-22T04:13:33.508Z,1014.98
2019-04-22T04:16:10.694Z,1014.93
2019-04-22T04:17:50.156Z,1014.91
2019-04-22T04:18:11.371Z,1014.91
2019-04-22T04:21:26.661Z,1014.88
2019-04-22T04:22:21.367Z,1014.92
2019-04-22T04:23:18.994Z,1014.95
2019-04-22T04:25:29.451Z,1014.99
2019-04-22T04:26:17.739Z,1014.93
2019-04-22T04:28:31.919Z,1014.95
2019-04-22T04:32:26.996Z,1014.93
2019-04-22T04:33:18.129Z,1014.92
2019-04-22T04:35:23.910Z,1014.94
2019-04-22T04:37:32.685Z,1015.04
2019-04-22T04:38:11.455Z,1015.00
2019-04-22T04:41:29.062Z,1015.06
2019-04-22T04:42:25.466Z,1015.04
2019-04-22T04:46:24.305Z,1015.10
2019-04-22T04:47:28.691Z,1015.12
2019-04-22T04:48:13.804Z,1015.11
2019-04-22T04:49:17.725Z,1015.12
2019-04-22T04:50:35.399Z,1015.10
2019-04-22T04:54:24.240Z,1015.18
2019-04-22T04:55:26.637Z,1015.15
2019-04-22T04:57:33.649Z,1015.11
2019-04-22T05:01:23.059Z,1015.16
2019-04-22T05:02:20.237Z,1015.12
2019-04-22T05:03:27.743Z,1015.21
2019-04-22T05:04:42.132Z,1015.21
2019-04-22T05:05:26.662Z,1015.22
2019-04-22T05:06:12.614Z,1015.20
2019-04-22T05:08:19.325Z,1015.27
2019-04-22T05:10:26.433Z,1015.22
2019-04-22T05:11:16.342Z,1015.25
2019-04-22T05:13:33.530Z,1015.24
2019-04-22T05:14:21.967Z,1015.26
2019-04-22T05:17:16.425Z,1015.24
2019-04-22T05:18:14.277Z,1015.23
2019-04-22T05:19:15.975Z,1015.20
2019-04-22T05:20:34.151Z,1015.19
2019-04-22T05:21:14.121Z,1015.19
2019-04-22T05:22:13.220Z,1015.20
2019-04-22T05:23:11.956Z,1015.15
2019-04-22T05:24:16.550Z,1015.20
2019-04-22T05:25:14.658Z,1015.16
2019-04-22T05:26:12.607Z,1015.19
2019-04-22T05:27:13.454Z,1015.19
2019-04-22T05:28:05.841Z,1015.20
2019-04-22T05:29:09.634Z,1015.19
2019-04-22T05:31:09.771Z,1015.22
2019-04-22T05:32:14.408Z,1015.21
2019-04-22T05:33:07.335Z,1015.26
2019-04-22T05:34:09.567Z,1015.21
2019-04-22T05:35:06.794Z,1015.19
2019-04-22T05:36:10.232Z,1015.19
2019-04-22T05:37:07.625Z,1015.19
2019-04-22T05:38:14.990Z,1015.19
2019-04-22T05:39:09.476Z,1015.21
2019-04-22T05:40:17.693Z,1015.23
2019-04-22T05:42:09.630Z,1015.23
2019-04-22T05:43:09.388Z,1015.25
2019-04-22T05:44:08.169Z,1015.29
2019-04-22T05:45:13.255Z,1015.32
2019-04-22T05:46:05.697Z,1015.27
2019-04-22T05:47:08.041Z,1015.37
2019-04-22T05:48:02.893Z,1015.36
2019-04-22T05:49:14.635Z,1015.37
2019-04-22T05:50:10.872Z,1015.36
2019-04-22T05:51:23.928Z,1015.42
2019-04-22T05:52:12.272Z,1015.38
2019-04-22T05:53:05.144Z,1015.39
2019-04-22T05:54:13.300Z,1015.36
2019-04-22T05:55:08.501Z,1015.41
2019-04-22T05:56:12.297Z,1015.41
2019-04-22T05:57:12.894Z,1015.43
2019-04-22T06:00:10.235Z,1015.42
2019-04-22T06:01:29.540Z,1015.37
2019-04-22T06:02:14.713Z,1015.39
2019-04-22T06:03:12.259Z,1015.44
2019-04-22T06:05:29.525Z,1015.48
2019-04-22T06:06:09.995Z,1015.52
2019-04-22T06:07:06.551Z,1015.55
2019-04-22T06:08:04.176Z,1015.49
2019-04-22T06:09:04.009Z,1015.55
2019-04-22T06:10:09.939Z,1015.53
2019-04-22T06:11:14.850Z,1015.56
2019-04-22T06:12:00.156Z,1015.54
2019-04-22T06:13:02.203Z,1015.53
2019-04-22T06:14:02.537Z,1015.49
2019-04-22T06:15:04.798Z,1015.52
2019-04-22T06:16:03.619Z,1015.51
2019-04-22T06:18:20.901Z,1015.45
2019-04-22T06:19:12.593Z,1015.47
2019-04-22T06:20:02.761Z,1015.45
2019-04-22T06:21:11.306Z,1015.41
2019-04-22T06:22:17.476Z,1015.41
2019-04-22T06:23:12.170Z,1015.44
2019-04-22T06:24:12.656Z,1015.45
2019-04-22T06:25:09.966Z,1015.41
2019-04-22T06:28:15.580Z,1015.46
2019-04-22T06:29:10.386Z,1015.49
2019-04-22T06:30:04.994Z,1015.46
2019-04-22T06:31:13.371Z,1015.45
2019-04-22T06:32:23.288Z,1015.44
2019-04-22T06:33:13.241Z,1015.47
2019-04-22T06:34:11.888Z,1015.41
2019-04-22T06:36:08.617Z,1015.42
2019-04-22T06:38:28.234Z,1015.48
2019-04-22T06:39:10.537Z,1015.44
2019-04-22T06:40:05.960Z,1015.40
2019-04-22T06:41:08.801Z,1015.41
2019-04-22T06:42:11.536Z,1015.40
2019-04-22T06:43:10.329Z,1015.44
2019-04-22T06:44:16.200Z,1015.43
2019-04-22T06:45:15.138Z,1015.41
2019-04-22T06:46:08.484Z,1015.41
2019-04-22T06:47:10.496Z,1015.40
2019-04-22T06:48:08.349Z,1015.39
2019-04-22T06:49:09.648Z,1015.42
2019-04-22T06:50:07.778Z,1015.44
2019-04-22T06:51:06.915Z,1015.39
2019-04-22T06:52:18.003Z,1015.41
2019-04-22T06:53:09.095Z,1015.42
2019-04-22T06:54:07.788Z,1015.43
2019-04-22T06:55:13.161Z,1015.42
2019-04-22T06:56:05.211Z,1015.38
2019-04-22T06:57:05.883Z,1015.42
2019-04-22T06:58:04.588Z,1015.51
2019-04-22T06:59:06.586Z,1015.44
2019-04-22T07:00:00.528Z,1015.41
2019-04-22T07:01:09.740Z,1015.39
2019-04-22T07:02:14.879Z,1015.47
2019-04-22T07:04:03.263Z,1015.53
2019-04-22T07:05:08.192Z,1015.47
2019-04-22T07:06:09.502Z,1015.55
2019-04-22T07:07:08.317Z,1015.47
2019-04-22T07:08:16.308Z,1015.45
2019-04-22T07:09:20.589Z,1015.47
2019-04-22T07:10:20.500Z,1015.44
2019-04-22T07:11:03.568Z,1015.54
2019-04-22T07:12:10.025Z,1015.41
2019-04-22T07:13:00.930Z,1015.47
2019-04-22T07:14:07.173Z,1015.52
2019-04-22T07:15:13.061Z,1015.50
2019-04-22T07:16:05.072Z,1015.52
2019-04-22T07:17:04.047Z,1015.56
2019-04-22T07:18:13.263Z,1015.50
2019-04-22T07:19:07.415Z,1015.49
2019-04-22T07:20:04.123Z,1015.56
2019-04-22T07:22:25.739Z,1015.52
2019-04-22T07:23:08.447Z,1015.42
2019-04-22T07:24:21.214Z,1015.49
2019-04-22T07:25:06.192Z,1015.45
2019-04-22T07:26:04.399Z,1015.40
2019-04-22T07:27:05.687Z,1015.44
2019-04-22T07:28:05.186Z,1015.45
2019-04-22T07:29:21.267Z,1015.43
2019-04-22T07:30:08.773Z,1015.43
2019-04-22T07:31:03.932Z,1015.47
2019-04-22T07:32:07.794Z,1015.42
2019-04-22T07:34:15.725Z,1015.33
2019-04-22T07:35:08.535Z,1015.41
2019-04-22T07:36:39.098Z,1015.43
2019-04-22T07:38:10.681Z,1015.35
2019-04-22T07:39:04.245Z,1015.39
2019-04-22T07:40:02.381Z,1015.47
2019-04-22T07:40:59.357Z,1015.44
2019-04-22T07:42:10.652Z,1015.43
2019-04-22T07:43:09.101Z,1015.36
2019-04-22T07:44:13.478Z,1015.43
2019-04-22T07:45:04.553Z,1015.43
2019-04-22T07:46:09.590Z,1015.46
2019-04-22T07:47:13.892Z,1015.41
2019-04-22T07:48:13.006Z,1015.42
2019-04-22T07:49:02.133Z,1015.40
2019-04-22T07:50:09.703Z,1015.40
2019-04-22T07:51:07.644Z,1015.42
2019-04-22T07:52:05.166Z,1015.41
2019-04-22T07:53:04.837Z,1015.43
2019-04-22T07:54:06.189Z,1015.43
2019-04-22T07:55:04.172Z,1015.46
2019-04-22T07:56:04.923Z,1015.40
2019-04-22T07:57:11.749Z,1015.35
2019-04-22T07:58:08.198Z,1015.38
2019-04-22T07:59:04.133Z,1015.39
2019-04-22T08:00:10.674Z,1015.34
2019-04-22T08:01:10.143Z,1015.33
2019-04-22T08:02:05.532Z,1015.31
2019-04-22T08:03:18.350Z,1015.33
2019-04-22T08:05:22.521Z,1015.30
2019-04-22T08:07:10.949Z,1015.32
2019-04-22T08:08:08.501Z,1015.26
2019-04-22T08:09:11.493Z,1015.24
2019-04-22T08:11:59.474Z,1015.28
2019-04-22T08:13:03.807Z,1015.30
2019-04-22T08:14:07.589Z,1015.28
2019-04-22T08:15:06.076Z,1015.31
2019-04-22T08:16:05.725Z,1015.28
2019-04-22T08:17:13.588Z,1015.33
2019-04-22T08:18:04.940Z,1015.32
2019-04-22T08:19:10.538Z,1015.34
2019-04-22T08:20:13.957Z,1015.33
2019-04-22T08:21:06.356Z,1015.37
2019-04-22T08:22:02.720Z,1015.32
2019-04-22T08:24:06.326Z,1015.32
2019-04-22T08:25:04.213Z,1015.30
2019-04-22T08:26:01.019Z,1015.34
2019-04-22T08:27:07.722Z,1015.31
2019-04-22T08:28:03.061Z,1015.32
2019-04-22T08:29:06.809Z,1015.28
2019-04-22T08:30:14.742Z,1015.29
2019-04-22T08:31:10.801Z,1015.29
2019-04-22T08:32:12.119Z,1015.27
2019-04-22T08:33:13.874Z,1015.31
2019-04-22T08:34:11.277Z,1015.29
2019-04-22T08:35:04.656Z,1015.32
2019-04-22T08:36:11.510Z,1015.25
2019-04-22T08:37:42.311Z,1015.34
2019-04-22T08:38:06.927Z,1015.27
2019-04-22T08:39:07.872Z,1015.30
2019-04-22T08:40:09.604Z,1015.32
2019-04-22T08:41:08.648Z,1015.23
2019-04-22T08:41:57.397Z,1015.22
2019-04-22T08:45:09.350Z,1015.22
2019-04-22T08:46:05.756Z,1015.24
2019-04-22T08:47:17.764Z,1015.24
2019-04-22T08:48:01.035Z,1015.25
2019-04-22T08:49:16.063Z,1015.36
2019-04-22T08:50:08.797Z,1015.27
2019-04-22T08:51:09.020Z,1015.26
2019-04-22T08:52:11.027Z,1015.23
2019-04-22T08:53:10.994Z,1015.41
2019-04-22T08:54:06.148Z,1015.33
2019-04-22T08:55:22.981Z,1015.24
2019-04-22T08:56:21.528Z,1015.29
2019-04-22T08:57:06.644Z,1015.23
2019-04-22T08:59:10.445Z,1015.30
2019-04-22T09:00:02.772Z,1015.32
2019-04-22T09:01:09.107Z,1015.29
2019-04-22T09:02:07.762Z,1015.21
2019-04-22T09:03:04.367Z,1015.29
2019-04-22T09:04:02.389Z,1015.28
2019-04-22T09:05:00.067Z,1015.29
2019-04-22T09:06:12.420Z,1015.23
2019-04-22T09:07:12.948Z,1015.28
2019-04-22T09:08:07.490Z,1015.16
2019-04-22T09:09:06.153Z,1015.19
2019-04-22T09:10:02.194Z,1015.21
2019-04-22T09:11:08.741Z,1015.26
2019-04-22T09:12:07.880Z,1015.16
2019-04-22T09:14:56.778Z,1015.11
2019-04-22T09:16:03.109Z,1015.10
2019-04-22T09:17:05.969Z,1015.11
2019-04-22T09:18:08.400Z,1015.15
2019-04-22T09:19:07.764Z,1015.18
2019-04-22T09:20:10.841Z,1015.18
2019-04-22T09:21:15.398Z,1015.16
2019-04-22T09:22:04.718Z,1015.07
2019-04-22T09:23:09.321Z,1015.12
2019-04-22T09:24:05.262Z,1015.14
2019-04-22T09:25:01.072Z,1015.12
2019-04-22T09:26:05.032Z,1015.12
2019-04-22T09:27:04.021Z,1015.10
2019-04-22T09:28:01.404Z,1015.05
2019-04-22T09:29:05.043Z,1015.11
2019-04-22T09:30:10.257Z,1015.16
2019-04-22T09:31:06.807Z,1015.07
2019-04-22T09:32:09.390Z,1015.06
2019-04-22T09:33:09.627Z,1015.05
2019-04-22T09:34:01.050Z,1015.02
2019-04-22T09:35:07.055Z,1015.19
2019-04-22T09:36:12.434Z,1015.20
2019-04-22T09:37:18.082Z,1015.06
2019-04-22T09:38:23.311Z,1015.14
2019-04-22T09:39:01.619Z,1015.07
2019-04-22T09:40:14.016Z,1015.09
2019-04-22T09:41:06.540Z,1015.05
2019-04-22T09:42:04.975Z,1014.92
2019-04-22T09:43:03.217Z,1014.97
2019-04-22T09:44:02.909Z,1014.94
2019-04-22T09:45:06.159Z,1014.90
2019-04-22T09:46:16.522Z,1014.87
2019-04-22T09:47:06.191Z,1014.88
2019-04-22T09:48:08.698Z,1014.86
2019-04-22T09:49:10.044Z,1014.95
2019-04-22T09:50:09.992Z,1015.00
2019-04-22T09:51:03.748Z,1014.93
2019-04-22T09:52:02.867Z,1014.96
2019-04-22T09:53:13.401Z,1014.89
2019-04-22T09:54:06.635Z,1014.94
2019-04-22T09:55:09.576Z,1014.87
2019-04-22T09:56:03.664Z,1014.83
2019-04-22T09:57:01.541Z,1014.87
2019-04-22T09:58:03.151Z,1014.89
2019-04-22T09:59:03.950Z,1014.94
2019-04-22T10:01:12.415Z,1014.96
2019-04-22T10:02:23.107Z,1014.98
2019-04-22T10:03:10.310Z,1014.90
2019-04-22T10:04:06.479Z,1014.85
2019-04-22T10:05:07.866Z,1014.88
2019-04-22T10:06:14.588Z,1014.86
2019-04-22T10:06:59.747Z,1014.81
2019-04-22T10:08:09.531Z,1014.80
2019-04-22T10:09:26.306Z,1014.78
2019-04-22T10:10:09.453Z,1014.81
2019-04-22T10:11:04.619Z,1014.72
2019-04-22T10:12:02.625Z,1014.70
2019-04-22T10:13:06.723Z,1014.69
2019-04-22T10:14:05.789Z,1014.62
2019-04-22T10:15:00.145Z,1014.69
2019-04-22T10:15:59.154Z,1014.63
2019-04-22T10:17:04.685Z,1014.59
2019-04-22T10:18:04.847Z,1014.59
2019-04-22T10:19:04.231Z,1014.57
2019-04-22T10:20:04.061Z,1014.61
2019-04-22T10:21:08.421Z,1014.60
2019-04-22T10:22:08.620Z,1014.49
2019-04-22T10:23:05.547Z,1014.52
2019-04-22T10:24:05.933Z,1014.51
2019-04-22T10:25:08.254Z,1014.48
2019-04-22T10:26:04.877Z,1014.47
2019-04-22T10:27:01.584Z,1014.48
2019-04-22T10:28:09.222Z,1014.46
2019-04-22T10:29:08.616Z,1014.40
2019-04-22T10:31:06.784Z,1014.36
2019-04-22T10:32:00.842Z,1014.44
2019-04-22T10:33:02.804Z,1014.46
2019-04-22T10:33:53.297Z,1014.38
2019-04-22T10:34:45.733Z,1014.39
2019-04-22T10:35:39.345Z,1014.37
2019-04-22T10:36:37.882Z,1014.35
2019-04-22T10:37:38.409Z,1014.32
2019-04-22T10:38:36.944Z,1014.28
2019-04-22T10:39:45.861Z,1014.33
2019-04-22T10:40:38.753Z,1014.33
2019-04-22T10:41:36.906Z,1014.29
2019-04-22T10:42:36.895Z,1014.29
2019-04-22T10:43:37.162Z,1014.35
2019-04-22T10:44:37.353Z,1014.32
2019-04-22T10:45:37.689Z,1014.25
2019-04-22T10:46:37.923Z,1014.29
2019-04-22T10:47:38.211Z,1014.27
2019-04-22T10:48:36.828Z,1014.21
2019-04-22T10:49:38.241Z,1014.37
2019-04-22T10:50:38.058Z,1014.26
2019-04-22T10:51:36.956Z,1014.25
2019-04-22T10:52:37.248Z,1014.27
2019-04-22T10:53:37.546Z,1014.30
2019-04-22T10:54:37.667Z,1014.28
2019-04-22T10:55:37.512Z,1014.24
2019-04-22T10:56:36.991Z,1014.28
2019-04-22T10:57:36.757Z,1014.37
2019-04-22T10:58:36.720Z,1014.32
2019-04-22T10:59:36.708Z,1014.35
2019-04-22T11:00:37.654Z,1014.27
2019-04-22T11:01:38.520Z,1014.27
2019-04-22T11:02:37.213Z,1014.23
2019-04-22T11:03:37.316Z,1014.26
2019-04-22T11:04:36.652Z,1014.31
2019-04-22T11:05:37.824Z,1014.30
2019-04-22T11:06:40.994Z,1014.17
2019-04-22T11:07:44.004Z,1014.15
2019-04-22T11:08:43.293Z,1014.15
2019-04-22T11:09:50.468Z,1014.24
2019-04-22T11:10:54.248Z,1014.20
2019-04-22T11:11:46.746Z,1014.13
2019-04-22T11:12:39.137Z,1014.08
2019-04-22T11:13:37.824Z,1014.29
2019-04-22T11:14:37.797Z,1014.25
2019-04-22T11:15:37.099Z,1014.22
2019-04-22T11:16:37.256Z,1014.23
2019-04-22T11:17:37.683Z,1014.19
2019-04-22T11:18:37.830Z,1014.28
2019-04-22T11:19:37.338Z,1014.17
2019-04-22T11:20:37.784Z,1014.19
2019-04-22T11:21:37.744Z,1014.24
2019-04-22T11:22:37.354Z,1014.08
2019-04-22T11:23:36.593Z,1014.16
2019-04-22T11:24:36.995Z,1014.17
2019-04-22T11:25:36.421Z,1014.09
2019-04-22T11:26:36.880Z,1014.12
2019-04-22T11:27:37.106Z,1014.03
2019-04-22T11:28:37.917Z,1014.23
2019-04-22T11:29:37.467Z,1014.04
2019-04-22T11:30:36.783Z,1014.05
2019-04-22T11:31:36.594Z,1014.26
2019-04-22T11:32:36.384Z,1014.08
2019-04-22T11:33:36.468Z,1014.12
2019-04-22T11:34:37.606Z,1014.13
2019-04-22T11:35:37.480Z,1014.09
2019-04-22T11:36:37.071Z,1014.06
2019-04-22T11:37:36.766Z,1014.07
2019-04-22T11:38:37.721Z,1014.06
2019-04-22T11:39:38.688Z,1014.00
2019-04-22T11:40:40.599Z,1014.05
2019-04-22T11:41:37.961Z,1014.02
2019-04-22T11:42:36.410Z,1014.01
2019-04-22T11:43:36.319Z,1013.93
2019-04-22T11:44:37.186Z,1014.04
2019-04-22T11:45:37.373Z,1013.95
2019-04-22T11:46:36.190Z,1013.96
2019-04-22T11:47:37.347Z,1013.90
2019-04-22T11:48:36.174Z,1013.97
2019-04-22T11:49:36.289Z,1014.10
2019-04-22T11:50:37.630Z,1013.95
2019-04-22T11:51:36.166Z,1013.97
2019-04-22T11:52:37.217Z,1013.84
2019-04-22T11:53:36.596Z,1014.05
2019-04-22T11:54:36.967Z,1014.00
2019-04-22T11:55:36.959Z,1013.84
2019-04-22T11:56:36.936Z,1013.84
2019-04-22T11:57:37.092Z,1013.76
2019-04-22T11:58:37.226Z,1013.91
2019-04-22T11:59:36.420Z,1013.82
2019-04-22T12:00:36.976Z,1013.80
2019-04-22T12:01:37.162Z,1013.89
2019-04-22T12:02:36.604Z,1013.90
2019-04-22T12:03:36.005Z,1013.85
2019-04-22T12:04:36.006Z,1013.76
2019-04-22T12:05:37.470Z,1013.80
2019-04-22T12:06:36.083Z,1013.80
2019-04-22T12:07:37.052Z,1013.82
2019-04-22T12:08:37.344Z,1013.81
2019-04-22T12:09:37.450Z,1013.75
2019-04-22T12:10:45.065Z,1013.80
2019-04-22T12:11:36.915Z,1013.84
2019-04-22T12:12:36.312Z,1013.87
2019-04-22T12:13:35.910Z,1013.74
2019-04-22T12:14:36.245Z,1013.74
2019-04-22T12:15:37.175Z,1013.66
2019-04-22T12:16:37.144Z,1013.65
2019-04-22T12:17:36.274Z,1013.66
2019-04-22T12:18:37.072Z,1013.64
2019-04-22T12:19:35.829Z,1013.58
2019-04-22T12:20:37.220Z,1013.64
2019-04-22T12:21:37.120Z,1013.66
2019-04-22T12:22:35.850Z,1013.64
2019-04-22T12:23:37.082Z,1013.52
2019-04-22T12:24:36.397Z,1013.60
2019-04-22T12:25:46.341Z,1013.62
2019-04-22T12:26:37.959Z,1013.61
2019-04-22T12:27:36.909Z,1013.48
2019-04-22T12:28:36.801Z,1013.54
2019-04-22T12:29:35.720Z,1013.59
2019-04-22T12:30:35.719Z,1013.63
2019-04-22T12:31:35.819Z,1013.68
2019-04-22T12:32:35.863Z,1013.59
2019-04-22T12:33:37.046Z,1013.54
2019-04-22T12:34:35.668Z,1013.61
2019-04-22T12:35:36.953Z,1013.53
2019-04-22T12:36:36.249Z,1013.42
2019-04-22T12:37:43.553Z,1013.50
2019-04-22T12:38:37.761Z,1013.44
2019-04-22T12:39:35.775Z,1013.41
2019-04-22T12:40:42.993Z,1013.35
2019-04-22T12:41:38.044Z,1013.39
2019-04-22T12:42:35.580Z,1013.43
2019-04-22T12:43:35.567Z,1013.39
2019-04-22T12:44:38.752Z,1013.36
2019-04-22T12:45:36.336Z,1013.29
2019-04-22T12:46:36.514Z,1013.24
2019-04-22T12:47:35.850Z,1013.33
2019-04-22T12:48:36.771Z,1013.30
2019-04-22T12:49:38.369Z,1013.25
2019-04-22T12:50:40.267Z,1013.20
2019-04-22T12:51:36.837Z,1013.14
2019-04-22T12:52:43.662Z,1013.24
2019-04-22T12:53:37.967Z,1013.25
2019-04-22T12:54:35.447Z,1013.20
2019-04-22T12:55:35.438Z,1013.24
2019-04-22T12:56:35.559Z,1013.19
2019-04-22T12:57:36.838Z,1013.12
2019-04-22T12:58:35.746Z,1013.11
2019-04-22T12:59:35.493Z,1013.07
2019-04-22T13:00:36.327Z,1013.15
2019-04-22T13:01:35.371Z,1013.15
2019-04-22T13:02:36.672Z,1013.04
2019-04-22T13:03:36.127Z,1012.98
2019-04-22T13:04:36.241Z,1012.94
2019-04-22T13:05:35.369Z,1012.91
2019-04-22T13:06:35.616Z,1012.86
2019-04-22T13:07:35.713Z,1012.95
2019-04-22T13:08:35.806Z,1012.99
2019-04-22T13:09:35.286Z,1012.91
2019-04-22T13:10:46.875Z,1012.95
2019-04-22T13:11:36.972Z,1012.98
2019-04-22T13:12:35.254Z,1012.97
2019-04-22T13:13:36.684Z,1013.05
2019-04-22T13:14:35.250Z,1013.04
2019-04-22T13:15:35.218Z,1013.06
2019-04-22T13:16:35.394Z,1013.04
2019-04-22T13:17:35.707Z,1013.04
2019-04-22T13:18:42.129Z,1013.04
2019-04-22T13:19:36.261Z,1012.96
2019-04-22T13:20:36.424Z,1013.00
2019-04-22T13:21:36.511Z,1012.96
2019-04-22T13:22:35.142Z,1012.95
2019-04-22T13:23:35.131Z,1013.03
2019-04-22T13:24:36.162Z,1012.93
2019-04-22T13:25:36.569Z,1012.95
2019-04-22T13:26:35.930Z,1012.91
2019-04-22T13:27:35.201Z,1012.95
2019-04-22T13:28:35.078Z,1012.94
2019-04-22T13:29:35.075Z,1012.90
2019-04-22T13:30:36.752Z,1012.90
2019-04-22T13:31:35.050Z,1012.84
2019-04-22T13:32:36.722Z,1012.78
2019-04-22T13:33:35.024Z,1012.84